createdAt,value
2023-01-06T00:01:37.423Z,48.77
2023-01-06T00:04:05.880Z,46.47
2023-01-06T00:06:34.497Z,46.87
2023-01-06T00:09:04.783Z,42.63
2023-01-06T00:11:34.762Z,50.53
2023-01-06T00:14:03.309Z,48.10
2023-01-06T00:16:31.649Z,49.37
2023-01-06T00:19:01.117Z,49.40
2023-01-06T00:21:29.593Z,42.27
2023-01-06T00:23:57.835Z,55.77
2023-01-06T00:26:26.195Z,47.40
2023-01-06T00:28:56.525Z,47.90
2023-01-06T00:31:27.467Z,51.23
2023-01-06T00:33:56.832Z,49.70
2023-01-06T00:36:25.608Z,52.70
2023-01-06T00:38:53.707Z,46.77
2023-01-06T00:41:39.512Z,51.77
2023-01-06T00:44:09.465Z,53.10
2023-01-06T00:46:37.680Z,47.63
2023-01-06T00:49:07.764Z,54.23
2023-01-06T00:51:37.682Z,51.67
2023-01-06T00:54:06.800Z,52.17
2023-01-06T00:56:38.104Z,54.10
2023-01-06T00:59:06.497Z,54.53
2023-01-06T01:01:36.996Z,55.17
2023-01-06T01:04:05.567Z,53.60
2023-01-06T01:06:34.185Z,57.30
2023-01-06T01:09:02.892Z,49.70
2023-01-06T01:12:00.626Z,51.93
2023-01-06T01:14:28.905Z,54.27
2023-01-06T01:16:59.037Z,66.20
2023-01-06T01:19:28.026Z,51.30
2023-01-06T01:21:56.161Z,53.47
2023-01-06T01:24:24.925Z,53.53
2023-01-06T01:26:53.038Z,56.87
2023-01-06T01:29:21.336Z,58.27
2023-01-06T01:31:51.394Z,53.73
2023-01-06T01:34:21.451Z,50.83
2023-01-06T01:36:51.840Z,56.87
2023-01-06T01:39:22.034Z,53.93
2023-01-06T01:41:50.579Z,49.10
2023-01-06T01:44:56.026Z,53.77
2023-01-06T01:47:36.755Z,51.83
2023-01-06T01:50:12.091Z,51.97
2023-01-06T01:52:41.258Z,50.57
2023-01-06T01:55:10.441Z,54.33
2023-01-06T01:57:43.006Z,52.27
2023-01-06T02:00:11.903Z,55.93
2023-01-06T02:02:44.436Z,50.03
2023-01-06T02:05:19.374Z,55.63
2023-01-06T02:07:48.441Z,51.60
2023-01-06T02:10:18.680Z,49.97
2023-01-06T02:12:49.628Z,47.70
2023-01-06T02:15:19.946Z,51.87
2023-01-06T02:18:15.699Z,52.53
2023-01-06T02:21:23.209Z,52.70
2023-01-06T02:24:13.523Z,50.30
2023-01-06T02:27:11.727Z,43.57
2023-01-06T02:30:10.359Z,41.17
2023-01-06T02:32:59.495Z,39.40
2023-01-06T02:35:40.263Z,38.30
2023-01-06T02:38:21.308Z,43.53
2023-01-06T02:41:05.555Z,36.90
2023-01-06T02:43:42.885Z,38.53
2023-01-06T02:46:23.610Z,35.37
2023-01-06T02:49:02.747Z,34.20
2023-01-06T02:51:40.777Z,33.57
2023-01-06T02:54:18.067Z,28.30
2023-01-06T02:56:51.433Z,29.93
2023-01-06T02:59:25.994Z,31.60
2023-01-06T03:01:56.793Z,27.17
2023-01-06T03:04:30.746Z,27.57
2023-01-06T03:07:03.479Z,28.57
2023-01-06T03:09:35.958Z,28.27
2023-01-06T03:12:09.889Z,28.63
2023-01-06T03:14:41.372Z,31.07
2023-01-06T03:17:09.965Z,28.33
2023-01-06T03:19:39.821Z,29.70
2023-01-06T03:22:10.118Z,29.80
2023-01-06T03:24:39.276Z,30.07
2023-01-06T03:27:08.210Z,28.57
2023-01-06T03:29:39.015Z,31.77
2023-01-06T03:32:14.131Z,29.63
2023-01-06T03:34:59.847Z,28.93
2023-01-06T03:37:35.977Z,26.73
2023-01-06T03:40:11.275Z,26.77
2023-01-06T03:43:02.263Z,24.43
2023-01-06T03:45:52.258Z,26.27
2023-01-06T03:48:30.586Z,24.33
2023-01-06T03:51:06.255Z,27.87
2023-01-06T03:53:38.435Z,27.30
2023-01-06T03:56:16.859Z,22.43
2023-01-06T03:58:47.548Z,23.50
2023-01-06T04:01:16.748Z,23.13
2023-01-06T04:03:47.163Z,20.60
2023-01-06T04:06:17.069Z,21.07
2023-01-06T04:08:45.360Z,19.47
2023-01-06T04:11:34.411Z,18.57
2023-01-06T04:14:01.768Z,18.87
2023-01-06T04:16:30.510Z,19.13
2023-01-06T04:18:59.084Z,19.17
2023-01-06T04:21:29.114Z,19.23
2023-01-06T04:23:58.267Z,20.83
2023-01-06T04:26:26.431Z,20.60
2023-01-06T04:28:55.277Z,19.63
2023-01-06T04:31:23.590Z,21.53
2023-01-06T04:33:54.398Z,20.30
2023-01-06T04:36:22.662Z,20.47
2023-01-06T04:38:55.882Z,21.23
2023-01-06T04:41:24.110Z,22.57
2023-01-06T04:43:52.250Z,23.93
2023-01-06T04:46:20.364Z,24.43
2023-01-06T04:48:48.496Z,24.80
2023-01-06T04:51:16.565Z,25.50
2023-01-06T04:53:44.667Z,24.80
2023-01-06T04:56:14.388Z,25.03
2023-01-06T04:58:42.537Z,26.00
2023-01-06T05:01:13.019Z,24.10
2023-01-06T05:03:42.543Z,26.40
2023-01-06T05:06:12.273Z,25.20
2023-01-06T05:08:42.001Z,25.57
2023-01-06T05:11:14.277Z,25.10
2023-01-06T05:13:42.839Z,25.17
2023-01-06T05:16:13.518Z,27.40
2023-01-06T05:18:41.677Z,24.60
2023-01-06T05:21:09.878Z,24.50
2023-01-06T05:23:38.465Z,23.70
2023-01-06T05:26:07.377Z,22.50
2023-01-06T05:28:36.923Z,21.30
2023-01-06T05:31:06.627Z,24.73
2023-01-06T05:33:35.044Z,22.00
2023-01-06T05:36:05.145Z,22.73
2023-01-06T05:38:34.386Z,20.60
2023-01-06T05:41:03.223Z,20.20
2023-01-06T05:43:31.625Z,19.30
2023-01-06T05:46:05.123Z,20.00
2023-01-06T05:48:33.271Z,20.03
2023-01-06T05:51:05.925Z,19.37
2023-01-06T05:53:34.563Z,17.80
2023-01-06T05:56:03.320Z,17.53
2023-01-06T05:58:33.496Z,17.87
2023-01-06T06:01:04.607Z,17.03
2023-01-06T06:03:33.923Z,25.70
2023-01-06T06:06:04.951Z,15.03
2023-01-06T06:08:33.211Z,14.47
2023-01-06T06:11:04.653Z,13.43
2023-01-06T06:13:32.856Z,13.90
2023-01-06T06:16:13.512Z,13.20
2023-01-06T06:18:43.947Z,13.60
2023-01-06T06:21:13.432Z,13.97
2023-01-06T06:23:42.280Z,13.57
2023-01-06T06:26:12.041Z,13.87
2023-01-06T06:28:41.343Z,20.43
2023-01-06T06:31:12.358Z,13.40
2023-01-06T06:33:41.060Z,13.47
2023-01-06T06:36:12.082Z,12.47
2023-01-06T06:38:40.640Z,12.20
2023-01-06T06:41:08.696Z,12.63
2023-01-06T06:43:36.792Z,12.10
2023-01-06T06:46:05.173Z,12.60
2023-01-06T06:48:34.636Z,10.70
2023-01-06T06:51:05.246Z,10.03
2023-01-06T06:53:34.257Z,10.53
2023-01-06T06:56:02.882Z,9.47
2023-01-06T06:58:31.319Z,8.90
2023-01-06T07:00:59.479Z,9.10
2023-01-06T07:03:27.673Z,10.10
2023-01-06T07:05:57.400Z,11.63
2023-01-06T07:08:25.501Z,8.50
2023-01-06T07:10:53.595Z,8.13
2023-01-06T07:13:21.701Z,8.47
2023-01-06T07:15:49.768Z,8.20
2023-01-06T07:18:18.034Z,6.87
2023-01-06T07:20:49.671Z,7.37
2023-01-06T07:23:19.125Z,8.27
2023-01-06T07:25:47.265Z,6.27
2023-01-06T07:28:15.284Z,8.03
2023-01-06T07:30:43.383Z,5.93
2023-01-06T07:33:11.525Z,5.20
2023-01-06T07:35:39.736Z,6.23
2023-01-06T07:38:09.715Z,6.10
2023-01-06T07:40:39.654Z,7.33
2023-01-06T07:43:08.820Z,5.90
2023-01-06T07:45:37.541Z,7.80
2023-01-06T07:48:06.523Z,6.90
2023-01-06T07:50:34.636Z,5.90
2023-01-06T07:53:03.615Z,5.10
2023-01-06T07:55:31.719Z,4.93
2023-01-06T07:58:05.511Z,5.00
2023-01-06T08:00:33.745Z,6.40
2023-01-06T08:03:05.648Z,5.77
2023-01-06T08:05:33.983Z,6.23
2023-01-06T08:08:02.200Z,6.43
2023-01-06T08:10:30.440Z,5.60
2023-01-06T08:13:00.133Z,5.20
2023-01-06T08:15:28.360Z,6.10
2023-01-06T08:17:57.132Z,7.17
2023-01-06T08:20:25.593Z,4.90
2023-01-06T08:22:53.632Z,6.60
2023-01-06T08:25:21.874Z,7.40
2023-01-06T08:27:49.972Z,6.67
2023-01-06T08:30:21.749Z,5.40
2023-01-06T08:32:50.272Z,7.10
2023-01-06T08:35:18.461Z,5.73
2023-01-06T08:37:46.593Z,5.47
2023-01-06T08:40:15.967Z,5.13
2023-01-06T08:42:44.179Z,7.93
2023-01-06T08:45:13.178Z,8.03
2023-01-06T08:47:42.771Z,6.70
2023-01-06T08:50:10.848Z,5.13
2023-01-06T08:52:38.981Z,6.27
2023-01-06T08:55:07.422Z,8.20
2023-01-06T08:57:35.991Z,5.40
2023-01-06T09:00:04.847Z,6.57
2023-01-06T09:02:32.959Z,7.10
2023-01-06T09:05:02.531Z,6.83
2023-01-06T09:07:30.718Z,7.10
2023-01-06T09:09:58.894Z,5.97
2023-01-06T09:12:27.108Z,5.80
2023-01-06T09:14:55.241Z,6.17
2023-01-06T09:17:23.337Z,5.63
2023-01-06T09:19:51.586Z,6.00
2023-01-06T09:22:21.091Z,5.40
2023-01-06T09:24:49.183Z,7.60
2023-01-06T09:27:17.519Z,5.37
2023-01-06T09:29:45.563Z,5.50
2023-01-06T09:32:13.753Z,5.30
2023-01-06T09:34:42.002Z,5.60
2023-01-06T09:37:10.380Z,5.43
2023-01-06T09:39:40.071Z,5.47
2023-01-06T09:42:32.817Z,5.70
2023-01-06T09:45:04.380Z,6.33
2023-01-06T09:47:37.077Z,6.13
2023-01-06T09:50:10.585Z,5.63
2023-01-06T09:52:45.121Z,6.07
2023-01-06T09:55:19.183Z,5.83
2023-01-06T09:57:53.001Z,7.03
2023-01-06T10:00:29.276Z,5.67
2023-01-06T10:02:58.300Z,5.27
2023-01-06T10:05:33.691Z,5.50
2023-01-06T10:08:08.610Z,5.83
2023-01-06T10:10:45.617Z,6.23
2023-01-06T10:13:32.634Z,7.30
2023-01-06T10:16:11.289Z,6.47
2023-01-06T10:18:50.009Z,5.70
2023-01-06T10:21:28.938Z,5.10
2023-01-06T10:24:16.873Z,5.73
2023-01-06T10:26:50.087Z,5.10
2023-01-06T10:29:20.504Z,5.77
2023-01-06T10:31:50.917Z,4.50
2023-01-06T10:34:23.510Z,4.63
2023-01-06T10:36:58.208Z,5.50
2023-01-06T10:39:29.569Z,5.03
2023-01-06T10:42:25.802Z,4.30
2023-01-06T10:44:53.923Z,3.33
2023-01-06T10:47:26.549Z,6.97
2023-01-06T10:49:54.831Z,4.80
2023-01-06T10:52:24.021Z,4.57
2023-01-06T10:54:55.497Z,4.90
2023-01-06T10:57:29.644Z,3.60
2023-01-06T11:00:13.176Z,5.50
2023-01-06T11:02:46.108Z,3.87
2023-01-06T11:05:19.529Z,5.23
2023-01-06T11:07:51.985Z,5.17
2023-01-06T11:10:32.064Z,4.33
2023-01-06T11:13:04.816Z,4.30
2023-01-06T11:15:39.862Z,6.13
2023-01-06T11:18:20.415Z,3.30
2023-01-06T11:21:04.500Z,3.67
2023-01-06T11:23:33.277Z,5.10
2023-01-06T11:26:06.187Z,6.27
2023-01-06T11:28:35.725Z,4.60
2023-01-06T11:31:06.878Z,4.00
2023-01-06T11:33:37.691Z,4.07
2023-01-06T11:36:12.052Z,4.87
2023-01-06T11:38:45.196Z,3.70
2023-01-06T11:41:21.875Z,4.30
2023-01-06T11:43:52.977Z,6.77
2023-01-06T11:46:24.010Z,7.53
2023-01-06T11:48:59.580Z,4.70
2023-01-06T11:51:48.091Z,5.73
2023-01-06T11:54:30.969Z,4.97
2023-01-06T11:57:05.947Z,3.70
2023-01-06T11:59:52.440Z,6.00
2023-01-06T12:02:25.184Z,3.60
2023-01-06T12:04:54.531Z,5.33
2023-01-06T12:07:28.455Z,4.27
2023-01-06T12:10:02.625Z,4.43
2023-01-06T12:12:30.827Z,4.50
2023-01-06T12:15:01.414Z,3.77
2023-01-06T12:17:39.695Z,5.83
2023-01-06T12:20:13.975Z,4.87
2023-01-06T12:22:46.714Z,6.03
2023-01-06T12:25:18.804Z,4.83
2023-01-06T12:27:52.003Z,3.90
2023-01-06T12:30:29.066Z,6.23
2023-01-06T12:33:03.389Z,4.33
2023-01-06T12:35:34.044Z,5.33
2023-01-06T12:38:12.907Z,4.70
2023-01-06T12:40:45.224Z,4.33
2023-01-06T12:43:17.747Z,5.60
2023-01-06T12:45:57.660Z,4.53
2023-01-06T12:48:36.757Z,5.03
2023-01-06T12:51:12.321Z,5.80
2023-01-06T12:53:44.727Z,7.33
2023-01-06T12:56:30.980Z,6.07
2023-01-06T12:59:07.695Z,4.73
2023-01-06T13:01:42.966Z,5.33
2023-01-06T13:04:44.810Z,6.27
2023-01-06T13:07:24.119Z,4.33
2023-01-06T13:10:04.565Z,5.73
2023-01-06T13:12:54.581Z,5.50
2023-01-06T13:15:26.107Z,6.10
2023-01-06T13:18:05.558Z,5.93
2023-01-06T13:20:39.211Z,5.20
2023-01-06T13:23:30.357Z,5.03
2023-01-06T13:26:14.698Z,6.00
2023-01-06T13:28:53.932Z,5.10
2023-01-06T13:31:40.893Z,4.50
2023-01-06T13:34:36.796Z,4.53
2023-01-06T13:37:38.804Z,6.60
2023-01-06T13:40:13.270Z,6.50
2023-01-06T13:42:46.391Z,6.20
2023-01-06T13:45:19.642Z,5.93
2023-01-06T13:47:49.261Z,7.00
2023-01-06T13:50:21.754Z,8.90
2023-01-06T13:52:51.896Z,6.43
2023-01-06T13:55:28.485Z,7.23
2023-01-06T13:57:57.299Z,4.80
2023-01-06T14:00:27.341Z,7.13
2023-01-06T14:03:24.257Z,4.03
2023-01-06T14:05:58.607Z,5.60
2023-01-06T14:08:34.076Z,7.50
2023-01-06T14:11:08.216Z,8.93
2023-01-06T14:13:40.303Z,6.57
2023-01-06T14:16:11.653Z,7.10
2023-01-06T14:18:43.030Z,5.67
2023-01-06T14:21:23.392Z,4.80
2023-01-06T14:23:58.252Z,6.07
2023-01-06T14:26:48.346Z,8.70
2023-01-06T14:29:52.776Z,5.57
2023-01-06T14:33:06.792Z,10.30
2023-01-06T14:35:43.765Z,7.87
2023-01-06T14:38:26.876Z,6.53
2023-01-06T14:40:59.626Z,7.20
2023-01-06T14:43:35.555Z,9.80
2023-01-06T14:46:11.018Z,6.37
2023-01-06T14:48:45.613Z,8.73
2023-01-06T14:51:18.434Z,4.97
2023-01-06T14:53:52.910Z,7.57
2023-01-06T14:56:23.369Z,9.80
2023-01-06T14:58:51.438Z,9.80
2023-01-06T15:01:25.118Z,7.30
2023-01-06T15:03:58.841Z,7.30
2023-01-06T15:06:28.780Z,10.20
2023-01-06T15:09:12.200Z,6.10
2023-01-06T15:11:43.757Z,8.63
2023-01-06T15:14:28.772Z,7.90
2023-01-06T15:16:58.815Z,10.23
2023-01-06T15:19:27.187Z,7.47
2023-01-06T15:21:56.041Z,9.27
2023-01-06T15:24:28.310Z,8.37
2023-01-06T15:26:57.895Z,5.93
2023-01-06T15:29:26.867Z,7.00
2023-01-06T15:31:56.772Z,6.93
2023-01-06T15:34:31.419Z,9.10
2023-01-06T15:37:01.831Z,7.50
2023-01-06T15:39:33.062Z,8.67
2023-01-06T15:42:02.336Z,8.20
2023-01-06T15:44:31.979Z,8.00
2023-01-06T15:47:09.278Z,4.70
2023-01-06T15:49:39.349Z,8.40
2023-01-06T15:52:18.939Z,7.10
2023-01-06T15:54:48.821Z,5.77
2023-01-06T15:57:17.634Z,10.07
2023-01-06T15:59:54.921Z,6.80
2023-01-06T16:02:27.630Z,8.37
2023-01-06T16:04:55.940Z,6.13
2023-01-06T16:07:35.841Z,5.70
2023-01-06T16:10:25.942Z,10.23
2023-01-06T16:13:17.920Z,12.40
2023-01-06T16:15:47.728Z,9.10
2023-01-06T16:18:16.534Z,7.00
2023-01-06T16:20:44.854Z,7.60
2023-01-06T16:23:27.396Z,7.80
2023-01-06T16:26:10.849Z,7.50
2023-01-06T16:28:45.048Z,7.30
2023-01-06T16:31:14.475Z,10.97
2023-01-06T16:33:45.891Z,7.77
2023-01-06T16:36:16.216Z,6.57
2023-01-06T16:38:44.451Z,9.23
2023-01-06T16:41:19.416Z,7.03
2023-01-06T16:43:47.977Z,8.40
2023-01-06T16:46:21.259Z,8.13
2023-01-06T16:48:51.264Z,7.53
2023-01-06T16:51:19.329Z,9.00
2023-01-06T16:53:47.570Z,8.87
2023-01-06T16:56:21.743Z,8.20
2023-01-06T16:58:50.076Z,5.80
2023-01-06T17:01:20.117Z,7.43
2023-01-06T17:03:52.885Z,11.07
2023-01-06T17:06:22.558Z,7.10
2023-01-06T17:08:52.736Z,5.93
2023-01-06T17:11:24.257Z,7.50
2023-01-06T17:13:56.115Z,7.17
2023-01-06T17:16:29.736Z,8.50
2023-01-06T17:19:00.041Z,7.37
2023-01-06T17:21:30.736Z,6.53
2023-01-06T17:24:03.351Z,8.37
2023-01-06T17:26:33.085Z,7.20
2023-01-06T17:29:02.900Z,6.93
2023-01-06T17:31:33.996Z,6.77
2023-01-06T17:34:11.286Z,6.73
2023-01-06T17:36:41.556Z,9.73
2023-01-06T17:39:20.219Z,8.77
2023-01-06T17:41:50.148Z,6.00
2023-01-06T17:44:19.996Z,7.80
2023-01-06T17:46:48.199Z,7.07
2023-01-06T17:49:36.664Z,9.53
2023-01-06T17:52:15.912Z,8.53
2023-01-06T17:55:08.117Z,7.07
2023-01-06T17:57:41.123Z,11.53
2023-01-06T18:00:19.902Z,15.77
2023-01-06T18:02:50.071Z,9.87
2023-01-06T18:05:53.944Z,9.03
2023-01-06T18:08:23.105Z,7.23
2023-01-06T18:10:54.143Z,9.43
2023-01-06T18:13:25.293Z,8.73
2023-01-06T18:15:57.633Z,9.63
2023-01-06T18:18:28.705Z,6.77
2023-01-06T18:20:59.780Z,8.50
2023-01-06T18:23:28.924Z,6.97
2023-01-06T18:25:58.501Z,6.63
2023-01-06T18:28:28.517Z,10.80
2023-01-06T18:30:59.058Z,6.20
2023-01-06T18:33:27.589Z,12.57
2023-01-06T18:35:57.782Z,6.47
2023-01-06T18:38:26.736Z,6.87
2023-01-06T18:40:55.725Z,10.47
2023-01-06T18:43:29.579Z,8.40
2023-01-06T18:46:01.559Z,9.23
2023-01-06T18:48:32.880Z,12.50
2023-01-06T18:51:02.873Z,9.60
2023-01-06T18:53:32.557Z,10.87
2023-01-06T18:56:02.868Z,9.40
2023-01-06T18:58:42.347Z,11.57
2023-01-06T19:01:17.253Z,7.87
2023-01-06T19:04:03.753Z,8.07
2023-01-06T19:06:39.361Z,6.70
2023-01-06T19:09:26.957Z,8.53
2023-01-06T19:12:01.431Z,13.00
2023-01-06T19:14:34.854Z,24.73
2023-01-06T19:17:04.196Z,11.00
2023-01-06T19:19:39.228Z,9.30
2023-01-06T19:22:24.162Z,7.67
2023-01-06T19:24:56.637Z,6.90
2023-01-06T19:27:40.343Z,8.07
2023-01-06T19:30:41.203Z,9.03
2023-01-06T19:33:39.468Z,7.60
2023-01-06T19:36:40.294Z,8.37
2023-01-06T19:39:31.548Z,10.07
2023-01-06T19:42:07.417Z,9.30
2023-01-06T19:44:38.678Z,15.43
2023-01-06T19:47:18.253Z,10.00
2023-01-06T19:49:52.928Z,8.90
2023-01-06T19:52:34.324Z,11.60
2023-01-06T19:55:27.428Z,8.47
2023-01-06T19:57:57.813Z,7.67
2023-01-06T20:00:29.583Z,7.13
2023-01-06T20:03:03.196Z,9.80
2023-01-06T20:05:32.716Z,10.07
2023-01-06T20:08:00.803Z,8.43
2023-01-06T20:10:28.901Z,12.47
2023-01-06T20:12:57.012Z,8.67
2023-01-06T20:15:25.084Z,8.43
2023-01-06T20:17:53.130Z,8.37
2023-01-06T20:20:22.638Z,7.47
2023-01-06T20:22:50.787Z,8.10
2023-01-06T20:25:18.848Z,9.37
2023-01-06T20:27:47.015Z,13.33
2023-01-06T20:30:15.192Z,7.27
2023-01-06T20:32:43.291Z,9.37
2023-01-06T20:35:12.616Z,8.73
2023-01-06T20:37:42.097Z,8.40
2023-01-06T20:40:10.950Z,7.90
2023-01-06T20:42:39.006Z,14.10
2023-01-06T20:45:08.225Z,12.20
2023-01-06T20:47:37.425Z,10.27
2023-01-06T20:50:07.412Z,7.70
2023-01-06T20:52:35.574Z,14.70
2023-01-06T20:55:05.498Z,8.27
2023-01-06T20:57:33.776Z,8.90
2023-01-06T21:00:01.987Z,9.10
2023-01-06T21:02:30.315Z,10.27
2023-01-06T21:04:58.490Z,11.13
2023-01-06T21:07:26.754Z,10.00
2023-01-06T21:09:55.110Z,10.23
2023-01-06T21:12:24.726Z,9.53
2023-01-06T21:14:52.858Z,8.93
2023-01-06T21:17:21.069Z,10.00
2023-01-06T21:19:49.227Z,10.57
2023-01-06T21:22:17.270Z,9.10
2023-01-06T21:24:45.342Z,8.53
2023-01-06T21:27:13.442Z,11.50
2023-01-06T21:29:42.917Z,12.20
2023-01-06T21:32:11.164Z,10.63
2023-01-06T21:34:39.849Z,12.73
2023-01-06T21:37:08.219Z,9.83
2023-01-06T21:39:36.505Z,12.33
2023-01-06T21:42:22.267Z,16.10
2023-01-06T21:44:51.709Z,13.63
2023-01-06T21:47:20.414Z,14.13
2023-01-06T21:49:48.531Z,14.90
2023-01-06T21:52:18.249Z,13.00
2023-01-06T21:54:46.493Z,13.57
2023-01-06T21:57:14.721Z,14.23
2023-01-06T21:59:42.814Z,17.80
2023-01-06T22:02:14.869Z,14.23
2023-01-06T22:04:43.165Z,13.83
2023-01-06T22:07:11.397Z,17.23
2023-01-06T22:09:41.699Z,16.40
2023-01-06T22:12:12.506Z,15.57
2023-01-06T22:14:40.890Z,16.87
2023-01-06T22:17:09.309Z,19.60
2023-01-06T22:19:39.580Z,18.80
2023-01-06T22:22:07.951Z,17.10
2023-01-06T22:24:36.824Z,21.23
2023-01-06T22:27:05.304Z,18.77
2023-01-06T22:29:33.383Z,19.67
2023-01-06T22:32:06.516Z,18.80
2023-01-06T22:34:34.762Z,18.60
2023-01-06T22:37:04.269Z,20.17
2023-01-06T22:39:32.940Z,20.77
2023-01-06T22:42:01.098Z,21.30
2023-01-06T22:44:29.152Z,20.63
2023-01-06T22:46:57.243Z,22.27
2023-01-06T22:49:25.269Z,22.53
2023-01-06T22:51:53.279Z,22.73
2023-01-06T22:54:22.769Z,26.43
2023-01-06T22:56:50.799Z,27.60
2023-01-06T22:59:18.828Z,26.13
2023-01-06T23:01:47.149Z,22.50
2023-01-06T23:04:15.469Z,24.83
2023-01-06T23:06:43.517Z,23.03
2023-01-06T23:09:11.567Z,26.90
2023-01-06T23:11:41.683Z,26.00
2023-01-06T23:14:11.546Z,26.80
2023-01-06T23:16:40.937Z,25.93
2023-01-06T23:19:11.797Z,26.47
2023-01-06T23:21:40.488Z,27.10
2023-01-06T23:24:10.123Z,26.37
2023-01-06T23:26:42.114Z,26.00
2023-01-06T23:29:10.613Z,25.17
2023-01-06T23:31:41.060Z,27.03
2023-01-06T23:34:10.921Z,26.33
2023-01-06T23:36:39.534Z,28.70
2023-01-06T23:39:09.525Z,27.97
2023-01-06T23:41:38.760Z,30.93
2023-01-06T23:44:08.285Z,27.20
2023-01-06T23:46:39.557Z,29.80
2023-01-06T23:49:08.566Z,26.77
2023-01-06T23:51:36.635Z,27.73
2023-01-06T23:54:06.208Z,26.43
2023-01-06T23:56:35.673Z,27.93
2023-01-06T23:59:05.511Z,29.07
